Time;durP1;ratioP1;P1;durP2;ratioP2;P2;SDS_P1;SDS_P2;PMS_P1;PMS_P2;Temp;Humidity;BMP_temperature;BMP_pressure;BME280_temperature;BME280_humidity;BME280_pressure;Samples;Min_cycle;Max_cycle;Signal;HPM_P1;HPM_P2
2022/10/20 00:01:34;;;;;;;13.85;4.70;;;18.20;99.90;;;;;;5057702;28;20383;-73
2022/10/20 00:04:00;;;;;;;12.82;4.85;;;18.20;99.90;;;;;;5075676;28;20016;-73
2022/10/20 00:06:29;;;;;;;11.65;4.25;;;18.30;99.90;;;;;;5075523;28;20032;-75
2022/10/20 00:14:51;;;;;;;13.73;4.65;;;18.30;99.90;;;;;;5603639;23;20071;-76
2022/10/20 00:22:34;;;;;;;21.92;6.00;;;17.70;99.90;;;;;;3109090;26;20055;-80
2022/10/20 00:25:00;;;;;;;;;;;17.60;99.90;;;;;;4957713;29;20090;-80
2022/10/20 00:27:26;;;;;;;21.63;5.88;;;17.60;99.90;;;;;;4957139;29;19962;-80
2022/10/20 00:29:51;;;;;;;;;;;17.60;99.90;;;;;;4939768;29;20114;-79
2022/10/20 00:32:17;;;;;;;28.70;6.95;;;17.50;99.90;;;;;;4957157;29;20316;-77
2022/10/20 00:34:42;;;;;;;;;;;17.60;99.90;;;;;;4957452;29;20098;-79
2022/10/20 00:37:08;;;;;;;22.23;6.75;;;17.40;99.90;;;;;;4957090;29;19906;-80
2022/10/20 00:39:34;;;;;;;;;;;17.30;99.90;;;;;;4957063;29;20393;-79
2022/10/20 00:42:02;;;;;;;22.80;7.60;;;17.20;99.90;;;;;;4956674;29;19913;-79
2022/10/20 00:44:50;;;;;;;23.45;6.30;;;17.10;99.90;;;;;;4956901;29;20027;-78
2022/10/20 00:47:45;;;;;;;17.50;6.25;;;17.10;99.90;;;;;;4956986;29;20034;-77
2022/10/20 00:50:21;;;;;;;24.60;7.00;;;17.10;99.90;;;;;;4956895;29;20034;-78
2022/10/20 00:52:48;;;;;;;17.35;7.05;;;16.90;99.90;;;;;;4956664;29;20821;-79
2022/10/20 00:55:18;;;;;;;26.10;8.00;;;17.00;99.90;;;;;;4956793;29;20027;-79
2022/10/20 00:57:47;;;;;;;28.35;8.73;;;17.10;99.90;;;;;;4956588;29;20059;-80
2022/10/20 01:00:14;;;;;;;23.95;7.50;;;17.20;99.90;;;;;;4956370;29;20023;-78
2022/10/20 01:02:40;;;;;;;27.98;8.23;;;17.30;99.90;;;;;;4956619;29;20023;-78
2022/10/20 01:05:07;;;;;;;22.73;8.02;;;17.30;99.90;;;;;;4956355;29;20023;-78
2022/10/20 01:07:32;;;;;;;29.35;8.70;;;17.20;99.90;;;;;;4955998;28;20027;-79
2022/10/20 01:09:59;;;;;;;24.90;8.38;;;17.10;99.90;;;;;;4956146;29;20034;-78
2022/10/20 01:12:49;;;;;;;29.40;8.70;;;17.10;99.90;;;;;;4931533;28;20044;-77
2022/10/20 01:15:47;;;;;;;27.73;8.77;;;17.10;99.90;;;;;;4937162;29;20028;-78
2022/10/20 01:18:53;;;;;;;24.15;9.20;;;17.10;99.90;;;;;;4932905;29;20042;-78
2022/10/20 01:21:31;;;;;;;27.73;9.73;;;17.10;99.90;;;;;;4930474;29;20051;-79
2022/10/20 01:24:15;;;;;;;26.73;8.20;;;17.20;99.90;;;;;;4937184;29;20071;-78
2022/10/20 01:27:08;;;;;;;24.90;9.40;;;17.10;99.90;;;;;;4936987;29;20023;-78
2022/10/20 01:29:46;;;;;;;26.08;9.65;;;17.10;99.90;;;;;;4936561;29;20047;-78
2022/10/20 01:32:50;;;;;;;25.55;8.50;;;17.20;99.90;;;;;;4936846;29;20024;-77
2022/10/20 01:35:26;;;;;;;26.50;9.07;;;17.30;99.90;;;;;;4936839;29;20031;-80
2022/10/20 01:38:13;;;;;;;26.77;8.23;;;17.30;99.90;;;;;;4936772;29;20062;-78
2022/10/20 01:40:53;;;;;;;25.48;8.77;;;17.20;99.90;;;;;;4936498;29;20460;-78
2022/10/20 01:43:22;;;;;;;31.02;9.13;;;17.30;99.90;;;;;;4936740;29;20035;-79
2022/10/20 01:45:51;;;;;;;23.02;7.80;;;17.30;99.90;;;;;;4936514;29;20393;-79
2022/10/20 01:48:21;;;;;;;26.33;7.80;;;17.30;99.90;;;;;;4936528;29;20028;-77
2022/10/20 01:50:48;;;;;;;22.27;7.95;;;17.20;99.90;;;;;;4936068;29;20023;-79
2022/10/20 01:53:14;;;;;;;29.55;8.98;;;17.30;99.90;;;;;;4936281;29;20114;-77
2022/10/20 01:55:41;;;;;;;28.70;9.18;;;17.30;99.90;;;;;;4936555;29;20107;-77
2022/10/20 01:58:15;;;;;;;29.00;9.27;;;17.30;99.90;;;;;;4919090;29;20107;-79
2022/10/20 02:00:42;;;;;;;24.25;8.55;;;17.30;99.90;;;;;;4936214;29;20074;-78
2022/10/20 02:03:35;;;;;;;26.35;9.07;;;17.30;99.90;;;;;;4936248;29;20490;-78
2022/10/20 02:06:25;;;;;;;26.77;8.45;;;17.40;99.90;;;;;;4936163;29;20548;-77
2022/10/20 02:08:58;;;;;;;21.50;8.50;;;17.20;99.90;;;;;;4936213;29;20036;-79
2022/10/20 02:11:39;;;;;;;26.08;8.13;;;17.30;99.90;;;;;;4935674;29;20020;-78
2022/10/20 02:14:06;;;;;;;25.05;7.65;;;17.20;99.90;;;;;;4917578;29;20067;-78
2022/10/20 02:16:38;;;;;;;29.48;8.82;;;17.20;99.90;;;;;;4935833;29;20016;-80
2022/10/20 02:19:07;;;;;;;23.67;8.00;;;17.20;99.90;;;;;;4935302;29;20038;-79
2022/10/20 02:21:33;;;;;;;24.58;7.28;;;17.20;99.90;;;;;;4918647;29;20393;-80
2022/10/20 02:24:03;;;;;;;25.48;8.02;;;17.20;99.90;;;;;;4936182;29;20048;-80
2022/10/20 02:26:31;;;;;;;23.98;8.05;;;17.30;99.90;;;;;;4935975;29;20027;-80
2022/10/20 02:29:02;;;;;;;21.20;7.63;;;17.30;99.90;;;;;;4935714;29;20046;-77
2022/10/20 02:31:28;;;;;;;25.52;7.57;;;17.20;99.90;;;;;;4935385;29;20485;-78
2022/10/20 02:33:55;;;;;;;25.15;7.55;;;17.30;99.90;;;;;;4935867;29;20032;-78
2022/10/20 02:36:26;;;;;;;26.48;8.30;;;17.20;99.90;;;;;;4935808;29;20485;-77
2022/10/20 02:38:52;;;;;;;23.88;6.68;;;17.20;99.90;;;;;;4935691;29;20640;-79
2022/10/20 02:41:18;;;;;;;26.55;7.78;;;17.20;99.90;;;;;;4935297;29;20023;-79
2022/10/20 02:43:44;;;;;;;21.27;7.18;;;17.20;99.90;;;;;;4935803;29;20489;-79
2022/10/20 02:46:09;;;;;;;21.25;7.28;;;17.30;99.90;;;;;;4935718;29;20020;-79
2022/10/20 02:48:37;;;;;;;;;;;17.20;99.90;;;;;;4936045;29;20425;-78
2022/10/20 02:51:05;;;;;;;21.67;7.25;;;17.20;99.90;;;;;;4918565;29;20026;-79
2022/10/20 02:53:32;;;;;;;22.70;7.43;;;17.20;99.90;;;;;;4935389;29;20012;-79
2022/10/20 02:55:58;;;;;;;24.52;7.40;;;17.30;99.90;;;;;;4935643;29;20161;-79
2022/10/20 02:58:24;;;;;;;21.92;7.25;;;17.20;99.90;;;;;;4918377;29;20564;-79
2022/10/20 03:00:50;;;;;;;27.95;8.00;;;17.20;99.90;;;;;;4935148;29;20055;-77
2022/10/20 03:03:18;;;;;;;21.75;7.78;;;17.20;99.90;;;;;;4935530;29;20107;-78
2022/10/20 03:05:44;;;;;;;25.17;7.95;;;17.10;99.90;;;;;;4935186;29;20035;-79
2022/10/20 03:08:10;;;;;;;26.42;8.02;;;17.20;99.90;;;;;;4918374;29;20393;-79
2022/10/20 03:10:37;;;;;;;24.45;7.68;;;17.20;99.90;;;;;;4935089;29;20087;-78
2022/10/20 03:13:04;;;;;;;24.48;7.65;;;17.20;99.90;;;;;;4916817;29;20044;-79
2022/10/20 03:15:31;;;;;;;24.52;8.48;;;17.20;99.90;;;;;;4935418;29;20051;-78
2022/10/20 03:17:56;;;;;;;29.00;8.15;;;17.20;99.90;;;;;;4935138;29;20020;-80
2022/10/20 03:20:22;;;;;;;22.88;7.57;;;17.20;99.90;;;;;;4935046;29;20031;-78
2022/10/20 03:22:48;;;;;;;;;;;17.00;99.90;;;;;;4935642;29;20506;-78
2022/10/20 03:25:13;;;;;;;23.38;7.03;;;16.90;99.90;;;;;;4935967;29;19918;-80
2022/10/20 03:27:39;;;;;;;;;;;17.00;99.90;;;;;;4935638;29;20107;-80
2022/10/20 03:30:05;;;;;;;26.42;7.55;;;16.90;99.90;;;;;;4935443;29;19907;-79
2022/10/20 03:32:31;;;;;;;23.73;8.00;;;16.90;99.90;;;;;;4938973;29;20106;-78
2022/10/20 03:34:59;;;;;;;25.17;7.50;;;16.80;99.90;;;;;;4939200;29;20096;-79
2022/10/20 03:37:25;;;;;;;24.05;7.93;;;16.80;99.90;;;;;;4938959;29;20114;-79
2022/10/20 03:39:50;;;;;;;22.85;7.43;;;16.80;99.90;;;;;;4938838;29;20103;-78
2022/10/20 03:42:16;;;;;;;25.92;7.47;;;16.80;99.90;;;;;;4938387;29;20032;-79
2022/10/20 03:44:43;;;;;;;25.25;7.38;;;16.80;99.90;;;;;;4937612;29;20039;-78
2022/10/20 03:47:10;;;;;;;24.17;7.07;;;16.80;99.90;;;;;;4938666;29;20031;-78
2022/10/20 03:49:37;;;;;;;25.58;7.88;;;16.80;99.90;;;;;;4938759;29;20023;-79
2022/10/20 03:52:03;;;;;;;27.77;8.20;;;16.80;99.90;;;;;;4938165;29;20031;-77
2022/10/20 03:54:28;;;;;;;30.92;7.65;;;16.80;99.90;;;;;;4938587;29;20501;-79
2022/10/20 03:56:54;;;;;;;27.50;7.60;;;16.80;99.90;;;;;;4921472;29;20039;-78
2022/10/20 03:59:20;;;;;;;;;;;16.80;99.90;;;;;;4938948;29;20027;-78
2022/10/20 04:01:46;;;;;;;23.90;7.22;;;16.80;99.90;;;;;;4938132;29;19914;-78
2022/10/20 04:04:12;;;;;;;28.48;7.45;;;16.80;99.90;;;;;;4938338;29;20114;-79
2022/10/20 04:06:37;;;;;;;29.33;8.35;;;16.70;99.90;;;;;;4938883;29;20051;-78
2022/10/20 04:09:03;;;;;;;23.52;7.70;;;16.40;99.90;;;;;;4938596;29;20162;-80
2022/10/20 04:11:29;;;;;;;;;;;16.20;99.90;;;;;;4938692;29;20023;-78
2022/10/20 04:13:55;;;;;;;23.65;7.55;;;16.10;99.90;;;;;;4919798;29;20009;-80
2022/10/20 04:16:21;;;;;;;;;;;16.10;99.90;;;;;;4938779;29;20107;-79
2022/10/20 04:18:47;;;;;;;15.25;4.07;;;16.00;99.90;;;;;;4938229;29;20172;-78
2022/10/20 04:21:13;;;;;;;;;;;15.80;99.90;;;;;;4938254;29;20074;-80
2022/10/20 04:23:38;;;;;;;7.68;1.65;;;15.40;99.90;;;;;;4938425;29;19918;-78
2022/10/20 04:26:08;;;;;;;;;;;15.20;99.90;;;;;;4938517;29;20035;-76
2022/10/20 04:28:34;;;;;;;5.85;1.10;;;15.00;99.90;;;;;;4937738;29;19918;-79
2022/10/20 04:30:59;;;;;;;;;;;14.70;99.90;;;;;;4938099;29;20016;-79
2022/10/20 04:36:47;;;;;;;5.32;1.30;;;14.30;99.90;;;;;;4937907;29;20035;-78
2022/10/20 04:39:12;;;;;;;;;;;14.20;99.90;;;;;;4954203;29;20023;-78
2022/10/20 04:41:38;;;;;;;7.47;1.65;;;14.20;99.90;;;;;;4944478;29;19906;-78
2022/10/20 04:44:04;;;;;;;;;;;14.30;99.90;;;;;;4938147;29;20024;-80
2022/10/20 04:46:29;;;;;;;3.88;1.30;;;14.40;99.90;;;;;;4937748;29;20284;-79
2022/10/20 04:48:55;;;;;;;;;;;14.40;99.90;;;;;;4938055;29;20023;-78
2022/10/20 04:51:21;;;;;;;4.78;1.23;;;14.40;99.90;;;;;;4928873;29;19910;-78
2022/10/20 04:53:46;;;;;;;;;;;14.30;99.90;;;;;;4956871;29;20031;-80
2022/10/20 04:56:18;;;;;;;7.10;1.30;;;14.30;99.90;;;;;;4956831;29;20399;-79
2022/10/20 04:58:48;;;;;;;4.43;1.30;;;14.30;99.90;;;;;;4956449;29;20062;-79
2022/10/20 05:01:15;;;;;;;5.35;1.40;;;14.50;99.90;;;;;;4956371;29;20429;-79
2022/10/20 05:03:40;;;;;;;4.75;1.13;;;14.40;99.90;;;;;;4956571;29;20029;-77
2022/10/20 05:06:14;;;;;;;;;;;14.40;99.90;;;;;;4957089;29;20027;-78
2022/10/20 05:08:41;;;;;;;4.32;1.05;;;14.40;99.90;;;;;;4957151;29;19919;-79
2022/10/20 05:11:08;;;;;;;4.38;1.10;;;14.50;99.90;;;;;;4956156;29;20023;-79
2022/10/20 05:13:34;;;;;;;3.53;1.15;;;14.70;99.90;;;;;;4937819;29;20050;-77
2022/10/20 05:16:00;;;;;;;;;;;14.70;99.90;;;;;;4956540;29;20024;-80
2022/10/20 05:18:25;;;;;;;6.20;1.00;;;14.80;99.90;;;;;;4956344;29;19906;-79
2022/10/20 05:20:51;;;;;;;;;;;14.80;99.90;;;;;;4956230;29;20031;-79
2022/10/20 05:23:17;;;;;;;2.72;0.93;;;14.90;99.90;;;;;;4956020;29;19918;-80
2022/10/20 05:25:42;;;;;;;;;;;14.80;99.90;;;;;;4956611;29;20125;-77
2022/10/20 05:28:08;;;;;;;6.15;1.30;;;14.80;99.90;;;;;;4956248;29;19961;-77
2022/10/20 05:30:34;;;;;;;;;;;14.70;99.90;;;;;;4955069;29;20034;-78
2022/10/20 05:32:59;;;;;;;5.00;1.20;;;14.60;99.90;;;;;;4936815;29;19906;-77
2022/10/20 05:35:26;;;;;;;;;;;14.60;99.90;;;;;;4937280;29;20028;-79
2022/10/20 05:37:51;;;;;;;3.20;1.05;;;14.70;99.90;;;;;;4937224;29;20365;-78
2022/10/20 05:40:17;;;;;;;;;;;14.60;99.90;;;;;;4937069;29;20111;-77
2022/10/20 05:42:43;;;;;;;5.40;1.02;;;14.50;99.90;;;;;;4936249;29;19907;-80
2022/10/20 05:45:08;;;;;;;;;;;14.40;99.90;;;;;;4936970;29;20051;-79
2022/10/20 05:47:34;;;;;;;3.70;1.08;;;14.40;99.90;;;;;;4919425;29;19933;-79
2022/10/20 05:50:00;;;;;;;;;;;14.40;99.90;;;;;;4936888;29;20020;-79
2022/10/20 05:52:25;;;;;;;3.85;1.20;;;14.70;99.90;;;;;;4951661;29;20323;-78
2022/10/20 05:54:51;;;;;;;;;;;14.80;99.90;;;;;;4955144;28;20023;-79
2022/10/20 05:57:17;;;;;;;7.78;1.60;;;14.60;99.90;;;;;;4955645;29;19997;-77
2022/10/20 05:59:42;;;;;;;;;;;14.80;99.90;;;;;;4955944;29;20035;-79
2022/10/20 06:02:12;;;;;;;4.22;1.10;;;14.80;99.90;;;;;;4954981;29;19926;-79
2022/10/20 06:04:38;;;;;;;4.75;1.40;;;14.50;99.90;;;;;;4955339;29;20028;-79
2022/10/20 06:07:08;;;;;;;;;;;14.40;99.90;;;;;;4955720;29;20027;-78
2022/10/20 06:09:35;;;;;;;4.80;1.00;;;14.30;99.90;;;;;;4955445;29;19906;-78
2022/10/20 06:12:03;;;;;;;7.38;1.20;;;14.00;99.90;;;;;;4954878;29;20027;-79
2022/10/20 06:14:29;;;;;;;3.55;1.00;;;13.90;99.90;;;;;;4919921;29;20051;-77
2022/10/20 06:16:55;;;;;;;;;;;13.70;99.90;;;;;;4955507;29;20020;-77
2022/10/20 06:19:22;;;;;;;5.72;1.30;;;13.70;99.90;;;;;;4955201;29;19997;-78
2022/10/20 06:21:48;;;;;;;3.88;0.95;;;13.50;99.90;;;;;;4954734;29;20027;-79
2022/10/20 06:24:15;;;;;;;7.15;1.30;;;13.60;99.90;;;;;;4937452;29;20090;-79
2022/10/20 06:26:42;;;;;;;2.30;1.00;;;13.50;99.90;;;;;;4955241;29;20082;-79
2022/10/20 06:29:12;;;;;;;3.53;1.20;;;13.60;99.90;;;;;;4954870;29;20059;-78
2022/10/20 06:31:40;;;;;;;4.38;1.20;;;13.70;99.90;;;;;;4954758;29;20031;-78
2022/10/20 06:34:08;;;;;;;4.82;1.10;;;13.70;99.90;;;;;;4954969;29;20493;-79
2022/10/20 06:36:36;;;;;;;3.95;1.10;;;13.30;99.90;;;;;;4955535;29;20051;-79
2022/10/20 06:39:03;;;;;;;6.10;1.13;;;13.30;99.90;;;;;;4955051;29;20029;-78
2022/10/20 06:41:29;;;;;;;6.07;2.63;;;13.10;99.90;;;;;;4954546;29;20420;-79
2022/10/20 06:43:59;;;;;;;11.05;5.28;;;13.20;99.90;;;;;;4954920;29;20370;-79
2022/10/20 06:46:34;;;;;;;10.48;5.47;;;13.20;99.90;;;;;;4954856;29;20023;-80
2022/10/20 06:49:02;;;;;;;7.13;2.20;;;13.30;99.90;;;;;;4954872;29;20035;-78
2022/10/20 06:51:28;;;;;;;5.13;1.45;;;13.30;99.90;;;;;;4948535;29;20059;-80
2022/10/20 06:53:54;;;;;;;;;;;13.30;99.90;;;;;;4935833;29;20066;-79
2022/10/20 06:56:22;;;;;;;7.28;1.25;;;13.30;99.90;;;;;;4935610;29;20019;-78
2022/10/20 06:58:51;;;;;;;3.50;1.25;;;13.30;99.90;;;;;;4935684;29;20509;-79
2022/10/20 07:01:22;;;;;;;5.20;1.30;;;13.20;99.90;;;;;;4935285;29;20048;-78
2022/10/20 07:03:50;;;;;;;5.38;1.30;;;13.40;99.90;;;;;;4918300;29;20454;-78
2022/10/20 07:06:19;;;;;;;4.38;1.40;;;13.40;99.90;;;;;;4936899;29;20055;-77
2022/10/20 07:08:45;;;;;;;3.53;1.00;;;13.40;99.90;;;;;;4922565;29;20039;-79
2022/10/20 07:11:12;;;;;;;;;;;13.50;99.90;;;;;;4939536;29;20020;-79
2022/10/20 07:13:38;;;;;;;13.70;6.57;;;13.60;99.90;;;;;;4921013;29;20292;-79
2022/10/20 07:16:05;;;;;;;10.73;3.90;;;14.00;99.90;;;;;;4939413;29;20016;-79
2022/10/20 07:18:31;;;;;;;8.52;2.60;;;14.40;99.90;;;;;;4939468;29;20039;-77
2022/10/20 07:20:59;;;;;;;6.18;2.38;;;14.80;99.90;;;;;;4940428;29;20028;-79
2022/10/20 07:23:27;;;;;;;6.75;1.80;;;15.70;99.90;;;;;;4958193;29;20057;-80
2022/10/20 07:26:10;;;;;;;3.70;1.20;;;16.40;99.90;;;;;;4958473;29;20393;-78
2022/10/20 07:28:38;;;;;;;4.90;1.30;;;16.50;99.90;;;;;;4958066;29;20032;-77
2022/10/20 07:31:06;;;;;;;4.35;1.58;;;16.70;99.90;;;;;;4958048;29;20485;-77
2022/10/20 07:33:32;;;;;;;3.28;1.40;;;17.20;99.90;;;;;;4958175;29;20079;-78
2022/10/20 07:35:58;;;;;;;4.68;1.50;;;17.20;99.90;;;;;;4958874;29;20020;-79
2022/10/20 07:38:24;;;;;;;3.50;1.30;;;17.40;99.90;;;;;;4958228;29;20027;-80
2022/10/20 07:40:50;;;;;;;2.90;1.40;;;18.00;99.90;;;;;;4958086;29;20024;-77
2022/10/20 07:43:15;;;;;;;3.75;1.40;;;18.40;99.90;;;;;;4957815;29;20059;-78
2022/10/20 07:45:41;;;;;;;3.60;1.40;;;18.60;99.90;;;;;;4957959;29;20031;-79
2022/10/20 07:48:08;;;;;;;4.80;1.60;;;18.90;99.90;;;;;;4957956;29;20106;-80
2022/10/20 07:50:35;;;;;;;6.78;1.58;;;19.10;99.90;;;;;;4957878;29;20015;-79
2022/10/20 07:53:02;;;;;;;4.90;1.40;;;19.40;99.90;;;;;;4957409;29;20022;-77
2022/10/20 07:55:28;;;;;;;4.75;1.52;;;19.60;99.90;;;;;;4957792;29;20035;-80
2022/10/20 07:57:54;;;;;;;5.55;1.55;;;19.60;99.90;;;;;;4957810;29;20023;-78
2022/10/20 08:00:20;;;;;;;6.20;1.50;;;18.70;99.90;;;;;;4957833;29;20027;-80
2022/10/20 08:02:46;;;;;;;2.55;1.30;;;18.90;99.90;;;;;;4957529;29;20054;-78
2022/10/20 08:05:12;;;;;;;5.32;1.60;;;19.80;99.90;;;;;;4957390;29;20516;-79
2022/10/20 08:07:38;;;;;;;3.97;1.40;;;20.30;99.90;;;;;;4957619;29;20023;-77
2022/10/20 08:10:05;;;;;;;4.63;1.80;;;20.70;99.90;;;;;;4957685;29;20030;-80
2022/10/20 08:12:31;;;;;;;5.65;1.60;;;21.00;99.90;;;;;;4958071;29;20036;-80
2022/10/20 08:14:57;;;;;;;4.22;1.60;;;21.00;99.90;;;;;;4938726;29;20138;-79
2022/10/20 08:17:25;;;;;;;3.80;1.70;;;21.30;99.90;;;;;;4956217;28;20440;-78
2022/10/20 08:19:51;;;;;;;4.05;1.50;;;21.60;99.90;;;;;;4940224;29;20027;-80
2022/10/20 08:22:18;;;;;;;5.78;1.60;;;21.80;99.90;;;;;;4956837;29;20027;-77
2022/10/20 08:24:44;;;;;;;3.80;1.38;;;21.40;99.90;;;;;;4957284;29;20031;-79
2022/10/20 08:27:10;;;;;;;4.45;1.50;;;21.10;99.90;;;;;;4957284;29;20035;-79
2022/10/20 08:29:37;;;;;;;3.08;1.40;;;21.60;99.90;;;;;;4956941;29;20027;-79
2022/10/20 08:32:03;;;;;;;4.80;1.50;;;22.70;99.90;;;;;;4956943;29;20409;-79
2022/10/20 08:34:28;;;;;;;2.10;1.20;;;23.60;99.90;;;;;;4957143;29;20027;-78
2022/10/20 08:36:54;;;;;;;3.53;1.70;;;24.30;99.10;;;;;;4957605;29;20083;-75
2022/10/20 08:39:20;;;;;;;4.65;1.75;;;24.80;98.90;;;;;;4957056;29;20019;-78
2022/10/20 08:41:48;;;;;;;2.78;1.20;;;24.80;96.10;;;;;;4956468;29;20032;-76
2022/10/20 08:44:27;;;;;;;4.18;1.38;;;25.60;96.40;;;;;;4956990;29;20025;-76
2022/10/20 08:46:55;;;;;;;2.72;1.17;;;26.00;94.80;;;;;;4939267;29;20504;-76
2022/10/20 08:49:26;;;;;;;3.03;1.30;;;26.80;92.70;;;;;;4956764;29;20106;-75
2022/10/20 08:51:53;;;;;;;3.97;1.40;;;26.80;92.10;;;;;;4956489;29;20444;-78
2022/10/20 08:54:18;;;;;;;4.22;1.50;;;26.60;91.20;;;;;;4956919;29;20119;-78
2022/10/20 08:56:45;;;;;;;5.07;1.40;;;26.20;89.40;;;;;;4956663;29;20541;-78
2022/10/20 08:59:34;;;;;;;4.93;1.50;;;27.00;88.40;;;;;;4956751;29;20390;-77
2022/10/20 09:02:01;;;;;;;6.78;2.10;;;27.20;86.40;;;;;;4956877;29;20027;-78
2022/10/20 09:04:37;;;;;;;2.15;1.30;;;28.00;87.50;;;;;;4956554;29;20027;-76
2022/10/20 09:07:21;;;;;;;4.18;1.40;;;27.90;82.50;;;;;;4956452;29;20027;-79
2022/10/20 09:09:47;;;;;;;7.13;2.67;;;29.10;83.60;;;;;;4956687;29;20469;-77
2022/10/20 09:12:14;;;;;;;5.13;1.80;;;30.30;76.00;;;;;;4955979;29;20032;-78
2022/10/20 09:14:40;;;;;;;4.13;1.65;;;30.00;79.00;;;;;;4937753;29;20098;-79
2022/10/20 09:17:16;;;;;;;2.45;1.30;;;30.50;74.30;;;;;;4956155;29;20035;-79
2022/10/20 09:19:53;;;;;;;5.22;1.67;;;30.60;72.30;;;;;;4956311;29;20027;-77
2022/10/20 09:22:21;;;;;;;2.90;1.70;;;30.80;69.70;;;;;;4955917;29;20034;-77
2022/10/20 09:24:50;;;;;;;2.55;1.40;;;30.00;69.50;;;;;;4956292;29;20020;-78
2022/10/20 09:27:28;;;;;;;3.08;1.40;;;30.40;71.60;;;;;;4956128;29;20038;-76
2022/10/20 09:29:54;;;;;;;7.75;2.08;;;32.20;71.40;;;;;;4955560;28;20067;-79
2022/10/20 09:32:34;;;;;;;3.50;1.52;;;32.90;67.00;;;;;;4955787;29;20066;-78
2022/10/20 09:35:17;;;;;;;3.10;1.40;;;32.80;64.20;;;;;;4956039;29;20020;-77
2022/10/20 09:37:50;;;;;;;3.08;1.42;;;33.10;64.20;;;;;;4956634;29;20027;-76
2022/10/20 09:40:17;;;;;;;2.00;1.35;;;33.10;63.60;;;;;;4955933;29;20050;-79
2022/10/20 09:42:49;;;;;;;3.45;1.50;;;32.80;62.70;;;;;;4955584;29;20039;-76
2022/10/20 09:45:20;;;;;;;3.65;1.50;;;32.80;61.50;;;;;;4955920;29;20054;-78
2022/10/20 09:47:52;;;;;;;4.32;1.38;;;32.90;61.40;;;;;;4955766;29;20032;-78
2022/10/20 09:50:24;;;;;;;4.20;1.48;;;33.20;60.00;;;;;;4955656;29;20110;-79
2022/10/20 09:52:51;;;;;;;3.90;1.25;;;31.90;60.50;;;;;;4955153;29;20059;-76
2022/10/20 09:55:29;;;;;;;2.75;1.50;;;31.40;61.30;;;;;;4955685;29;20473;-77
2022/10/20 09:57:57;;;;;;;3.35;1.48;;;32.20;61.90;;;;;;4955633;29;20070;-79
2022/10/20 10:00:33;;;;;;;3.47;1.50;;;31.90;60.50;;;;;;4955866;29;20031;-77
2022/10/20 10:03:20;;;;;;;3.28;1.48;;;32.50;61.40;;;;;;4955119;29;20119;-75
2022/10/20 10:05:52;;;;;;;5.18;1.40;;;32.90;60.90;;;;;;4955296;29;20038;-77
2022/10/20 10:08:23;;;;;;;6.82;1.50;;;31.60;60.60;;;;;;4955381;29;20028;-79
2022/10/20 10:11:04;;;;;;;4.78;1.40;;;32.60;61.90;;;;;;4955410;29;20023;-77
2022/10/20 10:13:41;;;;;;;3.50;1.42;;;33.80;59.50;;;;;;4954795;29;20030;-78
2022/10/20 10:16:10;;;;;;;1.88;1.23;;;34.50;59.70;;;;;;4936486;29;20066;-78
2022/10/20 10:18:37;;;;;;;3.42;1.25;;;34.40;58.60;;;;;;4955316;29;20393;-76
2022/10/20 10:21:12;;;;;;;3.33;1.20;;;33.80;56.80;;;;;;4955126;29;20039;-77
2022/10/20 10:23:54;;;;;;;2.15;1.20;;;33.80;57.30;;;;;;4954802;29;20051;-75
2022/10/20 10:26:39;;;;;;;4.55;1.20;;;32.80;57.20;;;;;;4955146;29;20122;-78
2022/10/20 10:29:14;;;;;;;2.17;1.10;;;33.20;57.30;;;;;;4954793;29;20027;-77
2022/10/20 10:31:56;;;;;;;2.80;1.20;;;33.20;55.90;;;;;;4954964;29;20094;-79
2022/10/20 10:34:35;;;;;;;1.50;1.20;;;34.20;56.30;;;;;;4955070;29;20023;-76
2022/10/20 10:37:01;;;;;;;3.33;1.20;;;35.00;56.40;;;;;;4955608;29;20027;-77
2022/10/20 10:39:30;;;;;;;3.30;1.15;;;36.30;55.00;;;;;;4954677;28;20031;-78
2022/10/20 10:42:36;;;;;;;2.38;1.20;;;37.80;53.90;;;;;;4954284;29;20597;-79
2022/10/20 10:45:07;;;;;;;4.93;1.50;;;36.80;51.30;;;;;;4954937;29;20023;-77
2022/10/20 10:47:47;;;;;;;1.85;1.27;;;36.30;53.90;;;;;;4954893;29;20068;-79
2022/10/20 10:50:34;;;;;;;4.40;1.30;;;36.70;52.70;;;;;;4954857;29;20042;-79
2022/10/20 10:53:08;;;;;;;2.72;1.30;;;36.00;51.30;;;;;;4954473;29;20030;-79
2022/10/20 10:55:49;;;;;;;3.95;1.40;;;36.60;52.00;;;;;;4954812;29;20058;-77
2022/10/20 10:58:31;;;;;;;5.45;1.48;;;37.60;51.80;;;;;;4954653;29;20161;-77
2022/10/20 11:01:15;;;;;;;4.70;1.40;;;36.70;51.60;;;;;;4954768;29;20030;-77
2022/10/20 11:04:07;;;;;;;5.13;1.50;;;36.90;52.50;;;;;;4954243;29;20539;-77
2022/10/20 11:06:52;;;;;;;4.20;1.40;;;38.20;50.40;;;;;;4954652;29;20042;-80
2022/10/20 11:09:23;;;;;;;3.53;1.50;;;38.10;50.00;;;;;;4954762;29;20503;-80
2022/10/20 11:12:10;;;;;;;2.60;1.50;;;38.60;49.60;;;;;;4954323;29;20054;-78
2022/10/20 11:14:49;;;;;;;4.00;1.60;;;39.10;47.80;;;;;;4954662;29;20035;-80
2022/10/20 11:17:40;;;;;;;3.97;1.70;;;40.20;48.30;;;;;;4935783;29;20043;-79
2022/10/20 11:20:19;;;;;;;3.97;1.73;;;39.90;47.50;;;;;;4954515;29;20054;-79
2022/10/20 11:22:45;;;;;;;5.25;1.70;;;39.60;47.40;;;;;;4954194;29;20054;-79
2022/10/20 11:25:22;;;;;;;4.30;1.77;;;39.60;46.30;;;;;;4954513;29;20023;-79
2022/10/20 11:27:49;;;;;;;3.30;1.60;;;40.10;47.00;;;;;;4954677;29;20401;-81
2022/10/20 11:30:19;;;;;;;4.13;1.60;;;40.70;45.60;;;;;;4954331;29;20028;-80
2022/10/20 11:32:57;;;;;;;3.85;1.65;;;40.80;45.00;;;;;;4954173;29;20031;-78
2022/10/20 11:35:46;;;;;;;5.75;1.70;;;40.90;44.70;;;;;;4954431;29;20035;-79
2022/10/20 11:38:36;;;;;;;4.55;1.60;;;41.20;44.60;;;;;;4955009;29;20374;-80
2022/10/20 11:41:23;;;;;;;4.75;1.90;;;42.80;43.10;;;;;;4954370;29;20090;-79
2022/10/20 11:43:51;;;;;;;4.00;1.75;;;42.10;42.60;;;;;;4954000;29;20023;-80
2022/10/20 11:46:29;;;;;;;4.05;1.70;;;44.00;42.00;;;;;;4954373;29;20015;-79
2022/10/20 11:48:55;;;;;;;5.15;1.85;;;43.30;42.10;;;;;;4954479;29;20091;-79
2022/10/20 11:51:29;;;;;;;4.93;1.90;;;43.40;41.60;;;;;;4955245;28;20027;-80
2022/10/20 11:54:27;;;;;;;5.25;1.90;;;43.70;41.20;;;;;;4957432;29;20548;-79
2022/10/20 11:57:28;;;;;;;5.05;1.83;;;44.50;41.10;;;;;;4940609;29;20444;-79
2022/10/20 12:00:12;;;;;;;6.88;2.22;;;43.00;41.00;;;;;;4957792;29;20059;-81
2022/10/20 12:03:09;;;;;;;4.20;1.80;;;42.50;41.10;;;;;;4957404;29;20027;-79
2022/10/20 12:06:00;;;;;;;4.47;1.90;;;42.00;40.20;;;;;;4925363;29;20037;-81
2022/10/20 12:08:50;;;;;;;7.00;2.42;;;41.20;40.70;;;;;;4957617;29;20515;-79
2022/10/20 12:11:40;;;;;;;5.57;2.00;;;37.50;42.10;;;;;;4957658;29;20019;-79
2022/10/20 12:14:18;;;;;;;7.32;2.08;;;36.10;45.30;;;;;;4957139;29;20034;-79
2022/10/20 12:16:53;;;;;;;8.52;2.20;;;36.10;47.20;;;;;;4938542;29;20051;-80
2022/10/20 12:19:22;;;;;;;5.38;1.80;;;34.90;47.00;;;;;;4957392;29;20059;-76
2022/10/20 12:21:55;;;;;;;8.45;1.98;;;33.20;49.50;;;;;;4957119;29;20031;-79
2022/10/20 12:24:40;;;;;;;7.20;2.03;;;31.90;51.10;;;;;;4956622;29;20133;-77
2022/10/20 12:27:08;;;;;;;8.38;2.28;;;30.60;53.90;;;;;;4957524;29;20020;-79
2022/10/20 12:29:34;;;;;;;11.32;2.60;;;32.30;52.70;;;;;;4956937;29;20035;-77
2022/10/20 12:32:28;;;;;;;8.48;2.33;;;34.70;49.70;;;;;;4957047;29;20094;-80
2022/10/20 12:34:53;;;;;;;;;;;35.70;48.50;;;;;;4939977;29;20408;-81
2022/10/20 12:37:19;;;;;;;8.40;2.35;;;36.90;47.20;;;;;;4957660;29;19911;-80
2022/10/20 12:39:47;;;;;;;9.82;2.40;;;37.10;46.50;;;;;;4957004;29;20413;-79
2022/10/20 12:42:30;;;;;;;8.00;2.22;;;36.80;46.50;;;;;;4956688;29;20039;-77
2022/10/20 12:45:19;;;;;;;8.15;2.20;;;35.30;48.00;;;;;;4957034;29;20029;-77
2022/10/20 12:47:52;;;;;;;8.50;2.30;;;34.40;48.90;;;;;;4941027;29;20432;-79
2022/10/20 12:50:37;;;;;;;7.60;2.28;;;33.70;48.30;;;;;;4957053;29;20119;-77
2022/10/20 12:53:31;;;;;;;5.97;2.20;;;34.50;48.80;;;;;;4956405;29;20032;-80
2022/10/20 12:56:07;;;;;;;8.52;2.40;;;36.30;47.30;;;;;;4956048;29;20501;-80
2022/10/20 12:59:18;;;;;;;8.05;2.63;;;37.80;45.40;;;;;;4956641;29;20394;-80
2022/10/20 13:02:09;;;;;;;6.15;2.20;;;38.80;45.40;;;;;;4956639;29;20094;-79
2022/10/20 13:04:58;;;;;;;8.45;2.60;;;38.70;45.80;;;;;;4955940;28;20038;-77
2022/10/20 13:07:46;;;;;;;9.07;2.72;;;40.10;45.90;;;;;;4956672;29;20023;-79
2022/10/20 13:10:28;;;;;;;8.73;2.75;;;38.10;45.50;;;;;;4939338;29;20521;-78
2022/10/20 13:13:00;;;;;;;10.13;2.80;;;38.10;45.60;;;;;;4956119;29;20031;-79
2022/10/20 13:15:35;;;;;;;7.78;2.50;;;38.80;46.70;;;;;;4956434;29;20034;-78
2022/10/20 13:18:10;;;;;;;9.25;2.80;;;38.90;45.10;;;;;;4936250;29;20055;-80
2022/10/20 13:20:42;;;;;;;8.68;2.60;;;37.80;47.40;;;;;;4919916;29;20028;-77
2022/10/20 13:23:13;;;;;;;8.43;2.50;;;38.70;46.30;;;;;;4936567;29;20055;-80
2022/10/20 13:25:52;;;;;;;8.40;2.10;;;37.20;46.80;;;;;;4919688;29;20023;-79
2022/10/20 13:28:26;;;;;;;9.55;2.20;;;35.10;48.80;;;;;;4937111;29;20031;-77
2022/10/20 13:31:03;;;;;;;10.05;2.53;;;34.10;50.40;;;;;;4936887;29;20047;-79